createdAt,value
2019-04-03T00:05:05.114Z,47.8
2019-04-03T00:15:08.658Z,46.9
2019-04-03T00:25:12.128Z,48.2
2019-04-03T00:35:15.810Z,47.5
2019-04-03T00:45:19.268Z,48.8
2019-04-03T00:55:23.015Z,48.6
2019-04-03T01:05:29.042Z,48.5
2019-04-03T01:15:32.527Z,49.4
2019-04-03T01:25:36.089Z,49.7
2019-04-03T01:35:39.580Z,49.6
2019-04-03T01:45:43.021Z,50.3
2019-04-03T01:55:46.456Z,50.4
2019-04-03T02:05:49.881Z,49.3
2019-04-03T02:15:53.337Z,48.7
2019-04-03T02:25:56.964Z,48.2
2019-04-03T02:36:00.414Z,48
2019-04-03T02:46:04.412Z,48.3
2019-04-03T02:56:13.357Z,51.4
2019-04-03T03:06:17.596Z,52.2
2019-04-03T03:16:21.089Z,52.9
2019-04-03T03:26:24.744Z,53.5
2019-04-03T03:36:29.216Z,53.7
2019-04-03T03:46:34.032Z,54.7
2019-04-03T03:56:37.520Z,55.7
2019-04-03T04:06:41.843Z,56.9
2019-04-03T04:16:45.360Z,57.8
2019-04-03T04:26:50.683Z,59.1
2019-04-03T04:36:56.111Z,60.3
2019-04-03T04:46:59.561Z,61.3
2019-04-03T04:57:03.181Z,62.2
2019-04-03T05:07:06.640Z,63
2019-04-03T05:17:10.067Z,63.9
2019-04-03T05:27:13.490Z,64.3
2019-04-03T05:37:20.768Z,63.9
2019-04-03T05:47:24.410Z,62.8
2019-04-03T05:57:29.677Z,61.1
2019-04-03T06:07:33.142Z,61.7
2019-04-03T06:17:36.857Z,60.8
2019-04-03T06:27:45.749Z,58.5
2019-04-03T06:37:53.128Z,53.9
2019-04-03T06:47:57.029Z,52.9
2019-04-03T06:58:01.020Z,57.8
2019-04-03T07:08:06.390Z,57.9
2019-04-03T07:18:09.824Z,57.6
2019-04-03T07:28:13.266Z,57.4
2019-04-03T07:38:16.681Z,57.5
2019-04-03T07:48:20.323Z,55.7
2019-04-03T07:58:25.866Z,56.5
2019-04-03T08:08:29.319Z,56.1
2019-04-03T08:18:32.742Z,56.2
2019-04-03T08:28:37.164Z,56.1
2019-04-03T08:38:41.002Z,57.1
2019-04-03T08:48:48.771Z,54.3
2019-04-03T08:58:52.230Z,53.2
2019-04-03T09:08:58.966Z,51.4
2019-04-03T09:19:02.673Z,49.3
2019-04-03T09:29:06.091Z,50.1
2019-04-03T09:39:13.856Z,47.9
2019-04-03T09:49:18.971Z,48.5
2019-04-03T09:59:22.485Z,47.8
2019-04-03T10:09:25.984Z,47.6
2019-04-03T10:19:29.677Z,47.7
2019-04-03T10:29:33.495Z,46.8
2019-04-03T10:39:43.785Z,47.8
2019-04-03T10:49:48.429Z,47.6
2019-04-03T10:59:55.230Z,42.9
2019-04-03T11:09:59.024Z,44.6
2019-04-03T11:20:02.435Z,43.7
2019-04-03T11:30:06.090Z,44
2019-04-03T11:40:09.599Z,41.9
2019-04-03T11:50:13.331Z,42.4
2019-04-03T12:00:16.852Z,43
2019-04-03T12:10:20.287Z,40.7
2019-04-03T12:20:24.093Z,41.5
2019-04-03T12:30:28.588Z,42
2019-04-03T12:40:33.010Z,40.1
2019-04-03T12:50:37.042Z,41.8
2019-04-03T13:00:40.624Z,40.3
2019-04-03T13:10:49.067Z,40.3
2019-04-03T13:20:53.331Z,41.5
2019-04-03T13:30:56.756Z,40.1
2019-04-03T13:41:00.731Z,41.6
2019-04-03T13:51:04.220Z,41.2
2019-04-03T14:01:10.098Z,40.6
2019-04-03T14:11:13.932Z,42.6
2019-04-03T14:21:17.566Z,47.4
2019-04-03T14:31:36.793Z,47.3
2019-04-03T14:41:42.198Z,47.1
2019-04-03T14:51:45.972Z,47.9
2019-04-03T15:01:52.772Z,48.6
2019-04-03T15:11:56.287Z,48.7
2019-04-03T15:22:02.956Z,49.8
2019-04-03T15:32:06.498Z,49.3
2019-04-03T15:42:09.925Z,48.5
2019-04-03T15:52:14.007Z,49.4
2019-04-03T16:02:17.415Z,49.1
2019-04-03T16:12:21.395Z,46.3
2019-04-03T16:22:24.942Z,45.5
2019-04-03T16:32:28.394Z,44.7
2019-04-03T16:42:32.343Z,45.3
2019-04-03T16:52:38.541Z,45.1
2019-04-03T17:02:42.681Z,46
2019-04-03T17:12:50.038Z,47
2019-04-03T17:22:53.644Z,49
2019-04-03T17:32:57.615Z,50.3
2019-04-03T17:43:01.066Z,51.5
2019-04-03T17:53:07.080Z,52
2019-04-03T18:03:11.616Z,52.7
2019-04-03T18:13:15.109Z,53.1
2019-04-03T18:23:21.634Z,53.5
2019-04-03T18:33:25.697Z,54.1
2019-04-03T18:43:29.126Z,54.4
2019-04-03T18:53:32.579Z,55.1
2019-04-03T19:03:36.979Z,55.3
2019-04-03T19:13:40.480Z,56.2
2019-04-03T19:23:52.079Z,57.2
2019-04-03T19:33:57.843Z,57.1
2019-04-03T19:44:01.331Z,57.8
2019-04-03T19:54:04.780Z,57.9
2019-04-03T20:04:08.222Z,58.7
2019-04-03T20:14:12.214Z,59.2
2019-04-03T20:24:15.628Z,59.6
2019-04-03T20:34:19.043Z,60.4
2019-04-03T20:44:22.484Z,60.1
2019-04-03T20:54:25.952Z,61.2
2019-04-03T21:04:29.406Z,61.4
2019-04-03T21:14:32.843Z,61.1
2019-04-03T21:24:36.285Z,62
2019-04-03T21:34:42.551Z,61.9
2019-04-03T21:44:46.423Z,62.2
2019-04-03T21:54:49.907Z,62.8
2019-04-03T22:04:54.626Z,63.6
2019-04-03T22:14:58.090Z,63.6
2019-04-03T22:25:01.540Z,64.1
2019-04-03T22:35:05.020Z,64.1
2019-04-03T22:45:08.450Z,64.2
2019-04-03T22:55:15.412Z,64.4
2019-04-03T23:05:18.936Z,64.3
2019-04-03T23:15:22.338Z,64.4
2019-04-03T23:25:25.744Z,64.6
2019-04-03T23:35:29.177Z,64.8
2019-04-03T23:45:32.619Z,65.5
2019-04-03T23:55:36.841Z,65.5
